sensor_id;sensor_type;location;lat;lon;timestamp;pressure;altitude;pressure_sealevel;temperature;humidity
81865;BME280;71313;43.514;1.500;2023-07-13T00:00:44;100055.72;;;28.18;46.55
81865;BME280;71313;43.514;1.500;2023-07-13T00:03:10;100056.50;;;28.19;46.90
81865;BME280;71313;43.514;1.500;2023-07-13T00:05:39;100049.47;;;28.18;46.81
81865;BME280;71313;43.514;1.500;2023-07-13T00:08:05;100058.44;;;28.18;46.54
81865;BME280;71313;43.514;1.500;2023-07-13T00:10:30;100056.00;;;28.16;46.70
81865;BME280;71313;43.514;1.500;2023-07-13T00:12:57;100057.63;;;28.18;46.81
81865;BME280;71313;43.514;1.500;2023-07-13T00:15:27;100051.06;;;28.19;46.52
81865;BME280;71313;43.514;1.500;2023-07-13T00:17:55;100049.47;;;28.18;47.12
81865;BME280;71313;43.514;1.500;2023-07-13T00:20:23;100054.59;;;28.19;46.84
81865;BME280;71313;43.514;1.500;2023-07-13T00:22:51;100049.16;;;28.19;46.81
81865;BME280;71313;43.514;1.500;2023-07-13T00:25:17;100054.09;;;28.17;46.84
81865;BME280;71313;43.514;1.500;2023-07-13T00:27:43;100049.78;;;28.16;46.81
81865;BME280;71313;43.514;1.500;2023-07-13T00:30:10;100045.44;;;28.15;47.00
81865;BME280;71313;43.514;1.500;2023-07-13T00:32:35;100045.13;;;28.16;47.05
81865;BME280;71313;43.514;1.500;2023-07-13T00:35:02;100053.28;;;28.16;47.28
81865;BME280;71313;43.514;1.500;2023-07-13T00:37:28;100053.28;;;28.16;46.80
81865;BME280;71313;43.514;1.500;2023-07-13T00:39:54;100054.09;;;28.17;47.18
81865;BME280;71313;43.514;1.500;2023-07-13T00:42:19;100054.41;;;28.15;46.85
81865;BME280;71313;43.514;1.500;2023-07-13T00:47:31;100045.13;;;28.16;47.16
81865;BME280;71313;43.514;1.500;2023-07-13T00:49:57;100050.56;;;28.16;46.80
81865;BME280;71313;43.514;1.500;2023-07-13T00:52:23;100048.97;;;28.15;46.92
81865;BME280;71313;43.514;1.500;2023-07-13T00:54:48;100038.06;;;28.15;46.72
81865;BME280;71313;43.514;1.500;2023-07-13T00:57:16;100047.56;;;28.18;47.29
81865;BME280;71313;43.514;1.500;2023-07-13T00:59:46;100042.19;;;28.13;47.14
81865;BME280;71313;43.514;1.500;2023-07-13T01:02:12;100050.56;;;28.16;47.46
81865;BME280;71313;43.514;1.500;2023-07-13T01:04:38;100053.28;;;28.16;47.01
81865;BME280;71313;43.514;1.500;2023-07-13T01:07:05;100054.09;;;28.17;47.40
81865;BME280;71313;43.514;1.500;2023-07-13T01:09:31;100046.25;;;28.15;47.06
81865;BME280;71313;43.514;1.500;2023-07-13T01:11:57;100048.97;;;28.15;46.94
81865;BME280;71313;43.514;1.500;2023-07-13T01:14:22;100049.78;;;28.16;46.83
81865;BME280;71313;43.514;1.500;2023-07-13T01:16:49;100052.50;;;28.16;47.17
81865;BME280;71313;43.514;1.500;2023-07-13T01:22:02;100048.97;;;28.15;47.44
81865;BME280;71313;43.514;1.500;2023-07-13T01:24:28;100048.47;;;28.13;46.93
81865;BME280;71313;43.514;1.500;2023-07-13T01:26:54;100055.22;;;28.16;47.13
81865;BME280;71313;43.514;1.500;2023-07-13T01:29:21;100062.91;;;28.14;47.33
81865;BME280;71313;43.514;1.500;2023-07-13T01:31:46;100064.00;;;28.13;47.19
81865;BME280;71313;43.514;1.500;2023-07-13T01:34:12;100065.91;;;28.12;47.42
81865;BME280;71313;43.514;1.500;2023-07-13T01:36:38;100064.31;;;28.11;47.68
81865;BME280;71313;43.514;1.500;2023-07-13T01:39:04;100058.03;;;28.11;47.69
81865;BME280;71313;43.514;1.500;2023-07-13T01:41:29;100060.75;;;28.11;47.35
81865;BME280;71313;43.514;1.500;2023-07-13T01:43:55;100065.41;;;28.10;47.70
81865;BME280;71313;43.514;1.500;2023-07-13T01:46:20;100064.63;;;28.10;47.31
81865;BME280;71313;43.514;1.500;2023-07-13T01:48:46;100072.78;;;28.10;47.34
81865;BME280;71313;43.514;1.500;2023-07-13T01:51:11;100067.66;;;28.08;47.30
81865;BME280;71313;43.514;1.500;2023-07-13T01:53:38;100065.72;;;28.09;47.45
81865;BME280;71313;43.514;1.500;2023-07-13T01:56:04;100064.91;;;28.08;47.66
81865;BME280;71313;43.514;1.500;2023-07-13T01:58:30;100071.16;;;28.09;47.20
81865;BME280;71313;43.514;1.500;2023-07-13T02:00:55;100067.66;;;28.08;47.41
81865;BME280;71313;43.514;1.500;2023-07-13T02:03:21;100065.19;;;28.07;47.25
81865;BME280;71313;43.514;1.500;2023-07-13T02:05:46;100069.56;;;28.08;47.30
81865;BME280;71313;43.514;1.500;2023-07-13T02:08:12;100062.47;;;28.07;47.65
81865;BME280;71313;43.514;1.500;2023-07-13T02:10:37;100067.13;;;28.06;47.72
81865;BME280;71313;43.514;1.500;2023-07-13T02:13:05;100064.41;;;28.06;47.15
81865;BME280;71313;43.514;1.500;2023-07-13T02:15:31;100060.88;;;28.06;47.50
81865;BME280;71313;43.514;1.500;2023-07-13T02:17:57;100063.28;;;28.07;47.65
81865;BME280;71313;43.514;1.500;2023-07-13T02:20:24;100061.69;;;28.06;46.97
81865;BME280;71313;43.514;1.500;2023-07-13T02:22:50;100066.31;;;28.06;47.60
81865;BME280;71313;43.514;1.500;2023-07-13T02:25:15;100072.59;;;28.06;47.05
81865;BME280;71313;43.514;1.500;2023-07-13T02:27:41;100076.41;;;28.05;47.58
81865;BME280;71313;43.514;1.500;2023-07-13T02:30:07;100070.97;;;28.05;47.28
81865;BME280;71313;43.514;1.500;2023-07-13T02:32:32;100066.63;;;28.04;47.03
81865;BME280;71313;43.514;1.500;2023-07-13T02:34:59;100060.38;;;28.03;46.98
81865;BME280;71313;43.514;1.500;2023-07-13T02:37:24;100067.72;;;28.03;47.56
81865;BME280;71313;43.514;1.500;2023-07-13T02:39:50;100068.53;;;28.03;47.31
81865;BME280;71313;43.514;1.500;2023-07-13T02:42:15;100072.88;;;28.04;47.30
81865;BME280;71313;43.514;1.500;2023-07-13T02:44:41;100074.81;;;28.04;47.38
81865;BME280;71313;43.514;1.500;2023-07-13T02:47:07;100066.91;;;28.02;46.96
81865;BME280;71313;43.514;1.500;2023-07-13T02:49:32;100077.81;;;28.02;47.41
81865;BME280;71313;43.514;1.500;2023-07-13T02:51:58;100081.66;;;28.01;47.05
81865;BME280;71313;43.514;1.500;2023-07-13T02:54:23;100089.53;;;28.03;46.92
81865;BME280;71313;43.514;1.500;2023-07-13T02:56:49;100085.97;;;28.02;46.74
81865;BME280;71313;43.514;1.500;2023-07-13T02:59:14;100082.47;;;28.02;46.88
81865;BME280;71313;43.514;1.500;2023-07-13T03:01:40;100084.38;;;28.01;46.62
81865;BME280;71313;43.514;1.500;2023-07-13T03:04:06;100077.09;;;27.97;46.65
81865;BME280;71313;43.514;1.500;2023-07-13T03:06:32;100089.84;;;28.01;46.75
81865;BME280;71313;43.514;1.500;2023-07-13T03:08:58;100087.91;;;28.02;46.80
81865;BME280;71313;43.514;1.500;2023-07-13T03:11:25;100086.28;;;28.01;46.89
81865;BME280;71313;43.514;1.500;2023-07-13T03:13:52;100084.38;;;28.01;46.63
81865;BME280;71313;43.514;1.500;2023-07-13T03:16:17;100088.50;;;27.99;46.17
81865;BME280;71313;43.514;1.500;2023-07-13T03:18:43;100092.03;;;27.99;46.57
81865;BME280;71313;43.514;1.500;2023-07-13T03:21:10;100095.88;;;27.98;46.66
81865;BME280;71313;43.514;1.500;2023-07-13T03:23:36;100102.94;;;27.99;46.51
81865;BME280;71313;43.514;1.500;2023-07-13T03:28:28;100114.94;;;27.98;46.23
81865;BME280;71313;43.514;1.500;2023-07-13T03:31:21;100114.94;;;27.98;46.28
81865;BME280;71313;43.514;1.500;2023-07-13T03:33:47;100110.09;;;27.95;46.03
81865;BME280;71313;43.514;1.500;2023-07-13T03:36:19;100127.75;;;27.98;46.14
81865;BME280;71313;43.514;1.500;2023-07-13T03:38:47;100126.94;;;27.97;45.90
81865;BME280;71313;43.514;1.500;2023-07-13T03:41:13;100114.41;;;27.96;45.88
81865;BME280;71313;43.514;1.500;2023-07-13T03:43:39;100128.34;;;27.95;45.43
81865;BME280;71313;43.514;1.500;2023-07-13T03:46:04;100138.16;;;27.96;45.66
81865;BME280;71313;43.514;1.500;2023-07-13T03:48:30;100147.09;;;27.96;45.44
81865;BME280;71313;43.514;1.500;2023-07-13T03:50:55;100136.50;;;27.95;45.34
81865;BME280;71313;43.514;1.500;2023-07-13T03:53:21;100137.34;;;27.95;45.19
81865;BME280;71313;43.514;1.500;2023-07-13T03:55:47;100135.19;;;27.92;44.61
81865;BME280;71313;43.514;1.500;2023-07-13T03:58:31;100135.19;;;27.92;44.75
81865;BME280;71313;43.514;1.500;2023-07-13T04:00:57;100137.13;;;27.91;44.17
81865;BME280;71313;43.514;1.500;2023-07-13T04:03:23;100135.19;;;27.92;44.24
81865;BME280;71313;43.514;1.500;2023-07-13T04:05:49;100133.59;;;27.91;43.87
81865;BME280;71313;43.514;1.500;2023-07-13T04:08:15;100139.84;;;27.91;43.74
81865;BME280;71313;43.514;1.500;2023-07-13T04:10:42;100156.19;;;27.91;43.98
81865;BME280;71313;43.514;1.500;2023-07-13T04:13:08;100151.84;;;27.90;43.62
81865;BME280;71313;43.514;1.500;2023-07-13T04:15:34;100154.06;;;27.88;43.50
81865;BME280;71313;43.514;1.500;2023-07-13T04:17:59;100151.31;;;27.88;43.34
81865;BME280;71313;43.514;1.500;2023-07-13T04:20:26;100145.06;;;27.88;43.38
81865;BME280;71313;43.514;1.500;2023-07-13T04:22:52;100153.22;;;27.88;43.20
81865;BME280;71313;43.514;1.500;2023-07-13T04:25:20;100160.91;;;27.86;43.03
81865;BME280;71313;43.514;1.500;2023-07-13T04:27:45;100168.28;;;27.85;42.96
81865;BME280;71313;43.514;1.500;2023-07-13T04:30:11;100168.28;;;27.85;43.09
81865;BME280;71313;43.514;1.500;2023-07-13T04:32:36;100170.19;;;27.85;42.85
81865;BME280;71313;43.514;1.500;2023-07-13T04:35:02;100174.00;;;27.84;42.78
81865;BME280;71313;43.514;1.500;2023-07-13T04:37:28;100176.72;;;27.84;42.80
81865;BME280;71313;43.514;1.500;2023-07-13T04:39:54;100179.44;;;27.84;42.46
81865;BME280;71313;43.514;1.500;2023-07-13T04:42:20;100186.00;;;27.83;42.53
81865;BME280;71313;43.514;1.500;2023-07-13T04:44:49;100178.47;;;27.79;42.85
81865;BME280;71313;43.514;1.500;2023-07-13T04:47:15;100178.16;;;27.81;42.55
81865;BME280;71313;43.514;1.500;2023-07-13T04:49:40;100183.59;;;27.81;43.00
81865;BME280;71313;43.514;1.500;2023-07-13T04:52:07;100186.31;;;27.81;42.69
81865;BME280;71313;43.514;1.500;2023-07-13T04:54:35;100180.38;;;27.79;42.48
81865;BME280;71313;43.514;1.500;2023-07-13T04:57:03;100192.06;;;27.79;42.54
81865;BME280;71313;43.514;1.500;2023-07-13T04:59:29;100195.06;;;27.78;42.14
81865;BME280;71313;43.514;1.500;2023-07-13T05:01:55;100194.78;;;27.79;42.15
81865;BME280;71313;43.514;1.500;2023-07-13T05:04:20;100204.03;;;27.78;42.73
81865;BME280;71313;43.514;1.500;2023-07-13T05:06:46;100207.06;;;27.77;42.39
81865;BME280;71313;43.514;1.500;2023-07-13T05:09:11;100207.91;;;27.77;42.17
81865;BME280;71313;43.514;1.500;2023-07-13T05:11:38;100217.16;;;27.76;42.39
81865;BME280;71313;43.514;1.500;2023-07-13T05:14:06;100221.78;;;27.76;42.07
81865;BME280;71313;43.514;1.500;2023-07-13T05:16:31;100223.72;;;27.75;42.25
81865;BME280;71313;43.514;1.500;2023-07-13T05:18:57;100215.56;;;27.75;42.47
81865;BME280;71313;43.514;1.500;2023-07-13T05:21:24;100221.25;;;27.74;42.06
81865;BME280;71313;43.514;1.500;2023-07-13T05:23:49;100223.19;;;27.73;41.97
81865;BME280;71313;43.514;1.500;2023-07-13T05:26:15;100218.50;;;27.74;41.94
81865;BME280;71313;43.514;1.500;2023-07-13T05:28:40;100216.91;;;27.73;41.73
81865;BME280;71313;43.514;1.500;2023-07-13T05:31:08;100216.91;;;27.73;42.12
81865;BME280;71313;43.514;1.500;2023-07-13T05:33:34;100216.41;;;27.70;41.76
81865;BME280;71313;43.514;1.500;2023-07-13T05:36:00;100217.72;;;27.73;41.86
81865;BME280;71313;43.514;1.500;2023-07-13T05:38:26;100216.91;;;27.73;41.43
81865;BME280;71313;43.514;1.500;2023-07-13T05:40:53;100215.78;;;27.74;41.49
81865;BME280;71313;43.514;1.500;2023-07-13T05:43:19;100216.63;;;27.74;41.68
81865;BME280;71313;43.514;1.500;2023-07-13T05:45:44;100217.44;;;27.75;41.36
81865;BME280;71313;43.514;1.500;2023-07-13T05:48:10;100220.44;;;27.73;41.56
81865;BME280;71313;43.514;1.500;2023-07-13T05:50:36;100222.09;;;27.74;41.58
81865;BME280;71313;43.514;1.500;2023-07-13T05:53:02;100233.78;;;27.75;41.42
81865;BME280;71313;43.514;1.500;2023-07-13T05:55:27;100229.41;;;27.74;41.23
81865;BME280;71313;43.514;1.500;2023-07-13T05:57:53;100237.31;;;27.75;41.59
81865;BME280;71313;43.514;1.500;2023-07-13T06:00:18;100227.53;;;27.74;41.29
81865;BME280;71313;43.514;1.500;2023-07-13T06:02:44;100225.63;;;27.75;41.13
81865;BME280;71313;43.514;1.500;2023-07-13T06:05:10;100241.13;;;27.74;41.10
81865;BME280;71313;43.514;1.500;2023-07-13T06:07:35;100237.56;;;27.74;41.48
81865;BME280;71313;43.514;1.500;2023-07-13T06:10:01;100250.63;;;27.77;40.81
81865;BME280;71313;43.514;1.500;2023-07-13T06:12:27;100254.19;;;27.77;41.14
81865;BME280;71313;43.514;1.500;2023-07-13T06:14:52;100251.16;;;27.79;41.42
81865;BME280;71313;43.514;1.500;2023-07-13T06:17:18;100251.97;;;27.79;41.28
81865;BME280;71313;43.514;1.500;2023-07-13T06:19:44;100253.56;;;27.80;41.07
81865;BME280;71313;43.514;1.500;2023-07-13T06:22:09;100265.28;;;27.81;41.09
81865;BME280;71313;43.514;1.500;2023-07-13T06:24:35;100261.13;;;27.84;41.19
81865;BME280;71313;43.514;1.500;2023-07-13T06:27:00;100272.03;;;27.84;41.09
81865;BME280;71313;43.514;1.500;2023-07-13T06:29:26;100267.69;;;27.83;41.30
81865;BME280;71313;43.514;1.500;2023-07-13T06:31:51;100279.41;;;27.83;41.17
81865;BME280;71313;43.514;1.500;2023-07-13T06:34:17;100277.47;;;27.84;40.65
81865;BME280;71313;43.514;1.500;2023-07-13T06:36:44;100279.09;;;27.85;40.71
81865;BME280;71313;43.514;1.500;2023-07-13T06:39:09;100284.53;;;27.85;40.97
81865;BME280;71313;43.514;1.500;2023-07-13T06:41:35;100282.63;;;27.85;41.12
81865;BME280;71313;43.514;1.500;2023-07-13T06:44:00;100280.19;;;27.84;40.52
81865;BME280;71313;43.514;1.500;2023-07-13T06:46:26;100275.56;;;27.84;40.40
81865;BME280;71313;43.514;1.500;2023-07-13T06:48:53;100277.47;;;27.84;40.14
81865;BME280;71313;43.514;1.500;2023-07-13T06:51:19;100288.97;;;27.80;39.31
81865;BME280;71313;43.514;1.500;2023-07-13T06:53:44;100292.00;;;27.74;39.14
81865;BME280;71313;43.514;1.500;2023-07-13T06:56:10;100295.41;;;27.65;39.13
81865;BME280;71313;43.514;1.500;2023-07-13T06:58:36;100304.41;;;27.46;38.96
81865;BME280;71313;43.514;1.500;2023-07-13T07:01:03;100309.88;;;27.22;39.59
81865;BME280;71313;43.514;1.500;2023-07-13T07:03:29;100306.25;;;27.07;39.96
81865;BME280;71313;43.514;1.500;2023-07-13T07:06:06;100300.16;;;26.91;39.86
81865;BME280;71313;43.514;1.500;2023-07-13T07:08:37;100310.03;;;26.82;40.36
81865;BME280;71313;43.514;1.500;2023-07-13T07:11:02;100319.09;;;26.72;40.50
81865;BME280;71313;43.514;1.500;2023-07-13T07:13:28;100312.31;;;26.69;40.73
81865;BME280;71313;43.514;1.500;2023-07-13T07:15:53;100316.19;;;26.63;40.84
81865;BME280;71313;43.514;1.500;2023-07-13T07:18:19;100318.16;;;26.57;41.17
81865;BME280;71313;43.514;1.500;2023-07-13T07:20:44;100316.59;;;26.51;41.18
81865;BME280;71313;43.514;1.500;2023-07-13T07:23:10;100325.31;;;26.48;41.13
81865;BME280;71313;43.514;1.500;2023-07-13T07:25:35;100327.00;;;26.44;41.24
81865;BME280;71313;43.514;1.500;2023-07-13T07:28:07;100327.84;;;26.39;40.96
81865;BME280;71313;43.514;1.500;2023-07-13T07:30:33;100331.94;;;26.31;41.16
81865;BME280;71313;43.514;1.500;2023-07-13T07:32:58;100323.34;;;26.18;41.24
81865;BME280;71313;43.514;1.500;2023-07-13T07:35:24;100324.50;;;26.12;41.83
81865;BME280;71313;43.514;1.500;2023-07-13T07:37:50;100327.50;;;26.05;41.92
81865;BME280;71313;43.514;1.500;2023-07-13T07:40:15;100331.56;;;26.08;42.12
81865;BME280;71313;43.514;1.500;2023-07-13T07:42:41;100327.78;;;26.09;42.07
81865;BME280;71313;43.514;1.500;2023-07-13T07:45:07;100331.09;;;26.01;41.96
81865;BME280;71313;43.514;1.500;2023-07-13T07:47:32;100318.38;;;25.96;42.20
81865;BME280;71313;43.514;1.500;2023-07-13T07:49:58;100322.50;;;25.88;41.90
81865;BME280;71313;43.514;1.500;2023-07-13T07:52:23;100321.44;;;25.84;42.28
81865;BME280;71313;43.514;1.500;2023-07-13T07:54:49;100322.28;;;25.79;42.28
81865;BME280;71313;43.514;1.500;2023-07-13T07:57:14;100313.31;;;25.79;42.41
81865;BME280;71313;43.514;1.500;2023-07-13T07:59:40;100324.16;;;25.79;42.57
81865;BME280;71313;43.514;1.500;2023-07-13T08:02:06;100318.50;;;25.75;42.33
81865;BME280;71313;43.514;1.500;2023-07-13T08:04:32;100324.97;;;25.79;42.23
81865;BME280;71313;43.514;1.500;2023-07-13T08:06:57;100324.16;;;25.79;42.16
81865;BME280;71313;43.514;1.500;2023-07-13T08:09:23;100322.56;;;25.78;42.23
81865;BME280;71313;43.514;1.500;2023-07-13T08:11:48;100313.63;;;25.72;42.52
81865;BME280;71313;43.514;1.500;2023-07-13T08:14:15;100323.69;;;25.71;42.34
81865;BME280;71313;43.514;1.500;2023-07-13T08:16:41;100321.78;;;25.72;42.86
81865;BME280;71313;43.514;1.500;2023-07-13T08:19:06;100319.31;;;25.70;42.46
81865;BME280;71313;43.514;1.500;2023-07-13T08:21:32;100313.09;;;25.70;42.06
81865;BME280;71313;43.514;1.500;2023-07-13T08:23:57;100321.25;;;25.70;42.39
81865;BME280;71313;43.514;1.500;2023-07-13T08:26:23;100317.44;;;25.66;41.93
81865;BME280;71313;43.514;1.500;2023-07-13T08:28:48;100321.00;;;25.61;41.90
81865;BME280;71313;43.514;1.500;2023-07-13T08:31:14;100309.34;;;25.55;41.73
81865;BME280;71313;43.514;1.500;2023-07-13T08:33:40;100313.97;;;25.55;42.15
81865;BME280;71313;43.514;1.500;2023-07-13T08:36:09;100319.94;;;25.57;41.66
81865;BME280;71313;43.514;1.500;2023-07-13T08:38:34;100325.34;;;25.57;41.72
81865;BME280;71313;43.514;1.500;2023-07-13T08:41:04;100328.31;;;25.60;41.77
81865;BME280;71313;43.514;1.500;2023-07-13T08:43:36;100324.00;;;25.59;41.24
81865;BME280;71313;43.514;1.500;2023-07-13T08:48:35;100325.63;;;25.55;41.45
81865;BME280;71313;43.514;1.500;2023-07-13T08:51:10;100322.41;;;25.53;41.10
81865;BME280;71313;43.514;1.500;2023-07-13T08:53:45;100322.63;;;25.57;41.43
81865;BME280;71313;43.514;1.500;2023-07-13T08:56:21;100315.03;;;25.59;40.69
81865;BME280;71313;43.514;1.500;2023-07-13T08:58:51;100310.19;;;25.56;41.05
81865;BME280;71313;43.514;1.500;2023-07-13T09:01:28;100313.13;;;25.59;41.76
81865;BME280;71313;43.514;1.500;2023-07-13T09:04:31;100314.50;;;25.62;41.73
81865;BME280;71313;43.514;1.500;2023-07-13T09:15:38;100304.41;;;25.63;40.92
81865;BME280;71313;43.514;1.500;2023-07-13T09:20:54;100317.47;;;25.60;40.50
81865;BME280;71313;43.514;1.500;2023-07-13T09:23:24;100312.59;;;25.57;40.82
81865;BME280;71313;43.514;1.500;2023-07-13T09:25:59;100311.78;;;25.57;40.29
81865;BME280;71313;43.514;1.500;2023-07-13T09:28:29;100308.53;;;25.55;40.91
81865;BME280;71313;43.514;1.500;2023-07-13T09:31:17;100298.75;;;25.59;40.24
81865;BME280;71313;43.514;1.500;2023-07-13T09:33:44;100311.25;;;25.60;40.55
81865;BME280;71313;43.514;1.500;2023-07-13T09:36:37;100307.13;;;25.63;41.20
81865;BME280;71313;43.514;1.500;2023-07-13T09:39:04;100309.59;;;25.64;41.49
81865;BME280;71313;43.514;1.500;2023-07-13T09:44:10;100321.50;;;25.68;41.42
81865;BME280;71313;43.514;1.500;2023-07-13T09:46:38;100309.00;;;25.72;41.47
81865;BME280;71313;43.514;1.500;2023-07-13T09:49:04;100312.84;;;25.66;41.18
81865;BME280;71313;43.514;1.500;2023-07-13T09:51:30;100317.47;;;25.60;41.27
81865;BME280;71313;43.514;1.500;2023-07-13T09:53:55;100318.53;;;25.65;41.08
81865;BME280;71313;43.514;1.500;2023-07-13T09:56:25;100312.00;;;25.66;41.61
81865;BME280;71313;43.514;1.500;2023-07-13T09:58:52;100304.41;;;25.68;41.74
81865;BME280;71313;43.514;1.500;2023-07-13T10:01:40;100301.69;;;25.68;41.34
81865;BME280;71313;43.514;1.500;2023-07-13T10:04:12;100316.91;;;25.69;41.16
81865;BME280;71313;43.514;1.500;2023-07-13T10:06:39;100327.47;;;25.70;41.41
81865;BME280;71313;43.514;1.500;2023-07-13T10:09:08;100317.44;;;25.71;41.55
81865;BME280;71313;43.514;1.500;2023-07-13T10:11:35;100315.78;;;25.75;41.76
81865;BME280;71313;43.514;1.500;2023-07-13T10:14:22;100318.19;;;25.82;41.58
81865;BME280;71313;43.514;1.500;2023-07-13T10:16:58;100320.59;;;25.89;41.73
81865;BME280;71313;43.514;1.500;2023-07-13T10:19:27;100324.38;;;25.93;41.99
81865;BME280;71313;43.514;1.500;2023-07-13T10:21:59;100329.75;;;25.98;41.75
81865;BME280;71313;43.514;1.500;2023-07-13T10:24:27;100325.66;;;26.01;41.99
81865;BME280;71313;43.514;1.500;2023-07-13T10:27:13;100329.16;;;26.06;42.08
81865;BME280;71313;43.514;1.500;2023-07-13T10:29:53;100328.56;;;26.10;41.92
81865;BME280;71313;43.514;1.500;2023-07-13T10:32:22;100323.41;;;26.13;41.89
81865;BME280;71313;43.514;1.500;2023-07-13T10:34:49;100321.75;;;26.17;41.84
81865;BME280;71313;43.514;1.500;2023-07-13T10:37:23;100308.69;;;26.19;41.60
81865;BME280;71313;43.514;1.500;2023-07-13T10:39:55;100320.06;;;26.22;41.76
81865;BME280;71313;43.514;1.500;2023-07-13T10:42:37;100320.59;;;26.24;41.83
81865;BME280;71313;43.514;1.500;2023-07-13T10:45:15;100326.53;;;26.26;41.78
81865;BME280;71313;43.514;1.500;2023-07-13T10:47:42;100320.03;;;26.27;42.05
81865;BME280;71313;43.514;1.500;2023-07-13T10:50:18;100317.84;;;26.29;41.95
81865;BME280;71313;43.514;1.500;2023-07-13T10:52:50;100332.50;;;26.28;41.99
81865;BME280;71313;43.514;1.500;2023-07-13T10:55:32;100323.81;;;26.31;41.93
81865;BME280;71313;43.514;1.500;2023-07-13T10:58:19;100321.63;;;26.33;42.02
81865;BME280;71313;43.514;1.500;2023-07-13T11:00:56;100317.00;;;26.34;41.89
81865;BME280;71313;43.514;1.500;2023-07-13T11:03:24;100317.78;;;26.34;41.85
81865;BME280;71313;43.514;1.500;2023-07-13T11:06:50;100319.13;;;26.37;42.06
81865;BME280;71313;43.514;1.500;2023-07-13T11:08:55;100312.63;;;26.38;41.77
81865;BME280;71313;43.514;1.500;2023-07-13T11:21:28;100305.25;;;26.44;42.00
81865;BME280;71313;43.514;1.500;2023-07-13T11:24:17;100297.63;;;26.46;42.09
81865;BME280;71313;43.514;1.500;2023-07-13T11:26:50;100301.94;;;26.47;42.33
81865;BME280;71313;43.514;1.500;2023-07-13T11:31:59;100297.03;;;26.49;41.82
81865;BME280;71313;43.514;1.500;2023-07-13T11:34:35;100300.28;;;26.51;42.27
81865;BME280;71313;43.514;1.500;2023-07-13T11:37:02;100298.91;;;26.53;42.07
81865;BME280;71313;43.514;1.500;2023-07-13T11:39:29;100292.34;;;26.54;42.12
81865;BME280;71313;43.514;1.500;2023-07-13T11:41:58;100288.84;;;26.54;42.33
81865;BME280;71313;43.514;1.500;2023-07-13T11:44:26;100275.78;;;26.56;42.13
81865;BME280;71313;43.514;1.500;2023-07-13T11:46:57;100283.66;;;26.58;42.16
81865;BME280;71313;43.514;1.500;2023-07-13T11:49:30;100280.63;;;26.59;42.41
81865;BME280;71313;43.514;1.500;2023-07-13T11:51:57;100281.97;;;26.62;42.52
81865;BME280;71313;43.514;1.500;2023-07-13T11:54:30;100275.16;;;26.64;42.03
81865;BME280;71313;43.514;1.500;2023-07-13T11:57:02;100277.88;;;26.64;42.28
81865;BME280;71313;43.514;1.500;2023-07-13T11:59:32;100265.06;;;26.65;42.42
81865;BME280;71313;43.514;1.500;2023-07-13T12:01:59;100253.94;;;26.67;42.05
81865;BME280;71313;43.514;1.500;2023-07-13T12:04:27;100254.47;;;26.69;42.38
81865;BME280;71313;43.514;1.500;2023-07-13T12:07:18;100255.00;;;26.71;42.54
81865;BME280;71313;43.514;1.500;2023-07-13T12:09:44;100254.69;;;26.72;42.11
81865;BME280;71313;43.514;1.500;2023-07-13T12:12:17;100254.41;;;26.74;42.14
81865;BME280;71313;43.514;1.500;2023-07-13T12:14:42;100256.53;;;26.77;42.21
81865;BME280;71313;43.514;1.500;2023-07-13T12:17:16;100257.03;;;26.79;42.48
81865;BME280;71313;43.514;1.500;2023-07-13T12:19:43;100251.59;;;26.79;42.43
81865;BME280;71313;43.514;1.500;2023-07-13T12:22:11;100251.84;;;26.83;42.27
81865;BME280;71313;43.514;1.500;2023-07-13T12:24:38;100251.84;;;26.83;42.10
81865;BME280;71313;43.514;1.500;2023-07-13T12:27:05;100248.53;;;26.86;42.22
81865;BME280;71313;43.514;1.500;2023-07-13T12:29:34;100237.38;;;26.87;41.96
81865;BME280;71313;43.514;1.500;2023-07-13T12:31:59;100245.25;;;26.89;42.28
81865;BME280;71313;43.514;1.500;2023-07-13T12:34:26;100244.13;;;26.90;42.19
81865;BME280;71313;43.514;1.500;2023-07-13T12:36:59;100242.75;;;26.93;42.17
81865;BME280;71313;43.514;1.500;2023-07-13T12:39:45;100232.19;;;26.91;42.09
81865;BME280;71313;43.514;1.500;2023-07-13T12:42:28;100228.06;;;26.94;41.92
81865;BME280;71313;43.514;1.500;2023-07-13T12:45:05;100234.81;;;26.96;42.09
81865;BME280;71313;43.514;1.500;2023-07-13T12:47:42;100242.97;;;26.96;42.08
81865;BME280;71313;43.514;1.500;2023-07-13T12:50:19;100233.13;;;27.00;41.96
81865;BME280;71313;43.514;1.500;2023-07-13T12:52:53;100235.56;;;27.02;41.93
81865;BME280;71313;43.514;1.500;2023-07-13T12:55:21;100236.06;;;27.04;42.08
81865;BME280;71313;43.514;1.500;2023-07-13T12:57:55;100234.19;;;27.05;42.02
81865;BME280;71313;43.514;1.500;2023-07-13T13:02:50;100236.31;;;27.08;42.07
81865;BME280;71313;43.514;1.500;2023-07-13T13:05:16;100231.97;;;27.07;42.05
81865;BME280;71313;43.514;1.500;2023-07-13T13:07:42;100233.34;;;27.09;41.84
81865;BME280;71313;43.514;1.500;2023-07-13T13:10:14;100226.78;;;27.10;41.91
81865;BME280;71313;43.514;1.500;2023-07-13T13:12:40;100222.97;;;27.11;41.85
81865;BME280;71313;43.514;1.500;2023-07-13T13:15:10;100224.59;;;27.13;41.64
81865;BME280;71313;43.514;1.500;2023-07-13T13:17:37;100224.88;;;27.11;41.83
81865;BME280;71313;43.514;1.500;2023-07-13T13:20:20;100225.09;;;27.15;41.56
81865;BME280;71313;43.514;1.500;2023-07-13T13:22:46;100223.19;;;27.15;41.63
81865;BME280;71313;43.514;1.500;2023-07-13T13:25:13;100223.19;;;27.15;41.78
81865;BME280;71313;43.514;1.500;2023-07-13T13:27:43;100217.16;;;27.18;41.73
81865;BME280;71313;43.514;1.500;2023-07-13T13:30:14;100215.25;;;27.19;41.63
81865;BME280;71313;43.514;1.500;2023-07-13T13:32:42;100217.66;;;27.20;41.60
81865;BME280;71313;43.514;1.500;2023-07-13T13:35:16;100223.94;;;27.21;41.76